Time;durP1;ratioP1;P1;durP2;ratioP2;P2;SDS_P1;SDS_P2;PMS_P1;PMS_P2;Temp;Humidity;BMP_temperature;BMP_pressure;BME280_temperature;BME280_humidity;BME280_pressure;Samples;Min_cycle;Max_cycle;Signal;HPM_P1;HPM_P2
2024/01/01 00:01:27;;;;;;;111.33;46.87;;;;;;;4.31;100.00;99725.68;5096452;56;1140648;-78
2024/01/01 00:06:32;;;;;;;100.60;48.20;;;;;;;4.34;100.00;99721.56;5110015;56;1141493;-77
2024/01/01 00:11:38;;;;;;;134.20;58.50;;;;;;;4.33;100.00;99705.48;5120876;55;1141070;-77
2024/01/01 00:16:46;;;;;;;93.80;44.93;;;;;;;4.30;100.00;99694.37;5172199;55;1140867;-80
2024/01/01 00:21:52;;;;;;;115.57;58.17;;;;;;;4.30;100.00;99707.45;5155436;56;1138809;-79
2024/01/01 00:26:57;;;;;;;65.10;30.87;;;;;;;4.32;100.00;99709.04;5108876;55;1141059;-78
2024/01/01 00:32:05;;;;;;;79.87;39.73;;;;;;;4.33;100.00;99706.80;5112033;56;1140908;-80
2024/01/01 00:37:11;;;;;;;128.42;51.68;;;;;;;4.31;100.00;99702.59;5106485;55;1140697;-79
2024/01/01 00:42:16;;;;;;;111.63;44.43;;;;;;;4.31;100.00;99706.52;5128591;55;1143298;-79
2024/01/01 00:47:22;;;;;;;108.30;49.53;;;;;;;4.30;100.00;99709.60;5087691;56;1143125;-78
2024/01/01 00:52:28;;;;;;;113.27;53.17;;;;;;;4.34;100.00;99707.63;5107516;56;1143001;-79
2024/01/01 00:57:33;;;;;;;131.47;65.97;;;;;;;4.36;100.00;99704.45;5119373;56;1142950;-81
2024/01/01 01:02:39;;;;;;;148.20;65.87;;;;;;;4.32;100.00;99716.05;5102025;56;1140664;-78
2024/01/01 01:07:45;;;;;;;96.95;46.58;;;;;;;4.32;100.00;99708.20;5148795;55;1140541;-78
2024/01/01 01:12:53;;;;;;;86.37;43.30;;;;;;;4.28;100.00;99709.36;5194386;55;1138800;-80
2024/01/01 01:17:58;;;;;;;125.33;60.87;;;;;;;4.24;100.00;99707.41;5178241;55;1178922;-80
2024/01/01 01:23:04;;;;;;;102.17;46.43;;;;;;;4.24;100.00;99702.16;5178532;55;1140565;-79
2024/01/01 01:28:09;;;;;;;61.83;31.77;;;;;;;4.24;100.00;99708.70;5172829;55;1141091;-77
2024/01/01 01:33:15;;;;;;;93.43;42.67;;;;;;;4.15;100.00;99710.13;5214153;55;1138603;-80
2024/01/01 01:38:21;;;;;;;144.90;65.67;;;;;;;4.08;100.00;99727.17;5151989;55;1138560;-80
2024/01/01 01:43:27;;;;;;;77.92;38.02;;;;;;;4.12;100.00;99701.19;5104978;56;1143046;-79
2024/01/01 01:48:33;;;;;;;115.07;52.03;;;;;;;4.17;100.00;99716.57;5110878;56;1140957;-77
2024/01/01 01:53:40;;;;;;;207.47;93.60;;;;;;;4.08;100.00;99715.39;5095579;56;1140489;-79
2024/01/01 01:58:46;;;;;;;139.83;62.30;;;;;;;4.05;100.00;99705.58;5006081;57;1141254;-81
2024/01/01 02:03:51;;;;;;;88.17;44.77;;;;;;;3.98;100.00;99710.35;5038423;57;1140942;-80
2024/01/01 02:08:57;;;;;;;73.22;35.08;;;;;;;3.84;100.00;99718.23;5179465;55;1138836;-80
2024/01/01 02:14:11;;;;;;;72.27;35.95;;;;;;;3.72;100.00;99713.30;5179100;55;1139087;-79
2024/01/01 02:19:23;;;;;;;80.73;37.73;;;;;;;3.63;100.00;99706.05;5172413;55;1138728;-79
2024/01/01 02:24:29;;;;;;;80.77;40.20;;;;;;;3.64;100.00;99685.50;5195152;55;1138698;-80
2024/01/01 02:29:34;;;;;;;82.10;37.57;;;;;;;3.66;100.00;99696.71;5173289;55;1139111;-79
2024/01/01 02:34:40;;;;;;;78.30;37.73;;;;;;;3.68;100.00;99696.12;5159387;55;1138762;-77
2024/01/01 02:39:45;;;;;;;78.90;37.77;;;;;;;3.69;100.00;99708.26;5192986;55;1138816;-78
2024/01/01 02:44:51;;;;;;;87.80;38.07;;;;;;;3.71;100.00;99705.55;5079064;56;1141034;-77
2024/01/01 02:49:56;;;;;;;80.77;39.13;;;;;;;3.70;100.00;99712.56;5095614;56;1140524;-78
2024/01/01 02:55:02;;;;;;;72.07;37.70;;;;;;;3.70;100.00;99721.70;5120980;56;1140521;-78
2024/01/01 03:00:09;;;;;;;78.47;38.03;;;;;;;3.71;100.00;99706.86;5121949;55;1140747;-78
2024/01/01 03:05:15;;;;;;;84.72;38.45;;;;;;;3.73;100.00;99703.22;5179796;55;1140721;-77
2024/01/01 03:10:21;;;;;;;75.50;38.77;;;;;;;3.74;100.00;99680.06;5194189;55;1141634;-78
2024/01/01 03:15:26;;;;;;;103.60;49.33;;;;;;;3.77;100.00;99701.27;5181934;55;1140754;-77
2024/01/01 03:20:33;;;;;;;142.40;70.23;;;;;;;3.83;100.00;99684.70;5177660;55;1143026;-78
2024/01/01 03:25:38;;;;;;;152.40;69.27;;;;;;;3.87;100.00;99680.95;5205543;55;1140734;-79
2024/01/01 03:30:45;;;;;;;121.87;54.05;;;;;;;3.89;100.00;99671.71;5146237;55;1140984;-78
2024/01/01 03:35:51;;;;;;;111.50;53.37;;;;;;;3.87;100.00;99683.58;5099518;56;1140809;-78
2024/01/01 03:40:56;;;;;;;85.30;41.70;;;;;;;3.87;100.00;99690.11;5121995;56;1140891;-78
2024/01/01 03:46:02;;;;;;;77.80;38.50;;;;;;;3.81;100.00;99692.30;5109595;56;1138628;-78
2024/01/01 03:51:08;;;;;;;85.70;41.60;;;;;;;3.74;100.00;99689.21;5110313;56;1138739;-78
2024/01/01 03:56:13;;;;;;;93.00;45.60;;;;;;;3.73;100.00;99686.22;5131394;56;1138814;-77
2024/01/01 04:01:22;;;;;;;86.43;43.83;;;;;;;3.74;100.00;99680.06;5205687;55;1138876;-76
2024/01/01 04:06:27;;;;;;;102.90;53.90;;;;;;;3.75;100.00;99681.73;5186273;55;1138762;-77
2024/01/01 04:11:33;;;;;;;85.00;45.93;;;;;;;3.84;100.00;99679.00;5185683;56;1140960;-78
2024/01/01 04:16:39;;;;;;;81.60;39.83;;;;;;;3.89;100.00;99680.86;5184154;55;1138807;-79
2024/01/01 04:21:45;;;;;;;76.67;39.48;;;;;;;3.92;100.00;99681.14;4947942;57;1138602;-76
2024/01/01 04:26:50;;;;;;;75.60;37.90;;;;;;;3.94;100.00;99672.27;5107836;55;1140736;-77
2024/01/01 04:31:56;;;;;;;85.05;43.58;;;;;;;4.04;100.00;99655.50;5128839;56;1140908;-78
2024/01/01 04:37:02;;;;;;;88.70;43.47;;;;;;;4.04;100.00;99664.66;5108704;55;1140501;-77
2024/01/01 04:42:07;;;;;;;89.80;45.60;;;;;;;4.02;100.00;99652.14;5109290;55;1140958;-79
2024/01/01 04:47:13;;;;;;;90.65;46.23;;;;;;;3.92;100.00;99640.13;5109752;56;1138670;-77
2024/01/01 04:52:18;;;;;;;85.30;42.40;;;;;;;3.83;100.00;99642.84;5129605;56;1138821;-78
2024/01/01 04:57:24;;;;;;;85.20;43.73;;;;;;;3.76;100.00;99645.50;5109406;56;1138685;-78
2024/01/01 05:02:30;;;;;;;99.40;44.37;;;;;;;3.75;100.00;99642.52;5109236;56;1138563;-79
2024/01/01 05:07:37;;;;;;;73.27;36.77;;;;;;;3.74;100.00;99649.14;5129057;56;1138440;-77
2024/01/01 05:12:44;;;;;;;84.63;43.50;;;;;;;3.71;100.00;99648.86;5108557;56;1147991;-77
2024/01/01 05:17:49;;;;;;;73.27;37.93;;;;;;;3.78;100.00;99651.48;5108700;56;1140940;-78
2024/01/01 05:22:55;;;;;;;71.75;35.40;;;;;;;3.86;100.00;99641.35;5117276;56;1140813;-79
2024/01/01 05:28:00;;;;;;;62.73;31.07;;;;;;;3.95;100.00;99633.86;5164369;55;1140484;-78
2024/01/01 05:33:06;;;;;;;75.27;38.17;;;;;;;4.00;100.00;99642.23;5164955;55;1140971;-78
2024/01/01 05:38:12;;;;;;;89.13;42.23;;;;;;;3.97;100.00;99652.92;5164542;55;1138711;-78
2024/01/01 05:43:17;;;;;;;85.20;43.07;;;;;;;3.82;100.00;99656.86;5123904;55;1138679;-77
2024/01/01 05:48:23;;;;;;;96.77;43.30;;;;;;;3.77;100.00;99669.41;5098316;55;1138839;-79
2024/01/01 05:53:28;;;;;;;97.20;42.97;;;;;;;3.79;100.00;99659.70;5164628;55;1138892;-77
2024/01/01 05:58:34;;;;;;;95.77;43.73;;;;;;;3.80;100.00;99657.45;5185139;56;1138706;-78
2024/01/01 06:03:40;;;;;;;77.97;36.63;;;;;;;3.81;100.00;99651.29;5162390;55;1251732;-78
2024/01/01 06:08:46;;;;;;;74.53;33.55;;;;;;;3.81;100.00;99635.59;5165276;55;1138616;-77
2024/01/01 06:13:52;;;;;;;71.07;34.13;;;;;;;3.77;100.00;99634.57;5185297;55;1138764;-77
2024/01/01 06:18:57;;;;;;;81.95;35.43;;;;;;;3.80;100.00;99636.53;5135680;56;1139078;-77
2024/01/01 06:24:04;;;;;;;85.90;35.60;;;;;;;3.86;100.00;99624.81;5079379;56;1141060;-77
2024/01/01 06:29:09;;;;;;;84.23;33.47;;;;;;;3.85;100.00;99625.75;5079403;56;1140886;-77
2024/01/01 06:34:15;;;;;;;60.53;30.03;;;;;;;3.83;100.00;99612.77;5099293;56;1140739;-76
2024/01/01 06:39:20;;;;;;;60.17;30.37;;;;;;;3.80;100.00;99620.00;5079261;56;1140889;-76
2024/01/01 06:44:27;;;;;;;92.08;43.63;;;;;;;3.82;100.00;99625.94;5094161;55;1138696;-78
2024/01/01 06:49:32;;;;;;;175.00;67.60;;;;;;;3.83;100.00;99636.78;5184904;55;1138807;-78
2024/01/01 06:54:40;;;;;;;139.53;55.43;;;;;;;3.78;100.00;99645.41;5164578;55;1140852;-79
2024/01/01 06:59:45;;;;;;;115.57;45.80;;;;;;;3.75;100.00;99642.98;5164566;55;1141064;-78
2024/01/01 07:04:51;;;;;;;96.85;39.35;;;;;;;3.74;100.00;99647.84;5185491;55;1140807;-78
2024/01/01 07:09:57;;;;;;;94.85;38.17;;;;;;;3.75;100.00;99645.13;5025908;57;1140615;-78
2024/01/01 07:15:03;;;;;;;81.83;35.97;;;;;;;3.77;100.00;99648.95;5163630;56;1140617;-77
2024/01/01 07:20:10;;;;;;;92.40;39.27;;;;;;;3.80;100.00;99640.92;5025267;57;1141042;-77
2024/01/01 07:25:16;;;;;;;93.10;40.03;;;;;;;3.76;100.00;99654.66;5185924;55;1138632;-79
2024/01/01 07:30:21;;;;;;;90.27;40.87;;;;;;;3.75;100.00;99662.59;5044996;57;1138921;-77
2024/01/01 07:35:27;;;;;;;61.07;32.67;;;;;;;3.71;100.00;99654.09;5186042;55;1138326;-77
2024/01/01 07:40:32;;;;;;;59.20;30.00;;;;;;;3.67;100.00;99646.53;5205938;55;1138577;-78
2024/01/01 07:45:38;;;;;;;50.23;25.40;;;;;;;3.54;100.00;99653.00;5185848;55;1138711;-77
2024/01/01 07:50:43;;;;;;;58.77;28.33;;;;;;;3.45;100.00;99649.67;5165909;55;1138723;-76
2024/01/01 07:55:49;;;;;;;47.97;26.00;;;;;;;3.46;100.00;99655.27;5153308;56;1138814;-77
2024/01/01 08:00:55;;;;;;;66.22;30.35;;;;;;;3.51;100.00;99660.56;5169039;55;1139154;-77
2024/01/01 08:06:00;;;;;;;65.15;31.20;;;;;;;3.58;100.00;99671.95;5185767;55;1138854;-78
2024/01/01 08:11:07;;;;;;;57.58;28.85;;;;;;;3.66;100.00;99671.03;5136711;55;1140768;-79
2024/01/01 08:16:14;;;;;;;44.07;23.50;;;;;;;3.71;100.00;99672.87;5162114;55;1138967;-77
2024/01/01 08:21:21;;;;;;;42.37;22.37;;;;;;;3.68;100.00;99688.27;5157264;55;1138709;-77
2024/01/01 08:26:27;;;;;;;43.13;20.37;;;;;;;3.56;100.00;99681.20;5130375;56;1138880;-77
2024/01/01 08:31:32;;;;;;;52.20;30.13;;;;;;;3.49;100.00;99683.38;5167034;55;1138784;-79
2024/01/01 08:36:38;;;;;;;36.50;21.47;;;;;;;3.48;100.00;99684.30;5159407;55;1139013;-77
2024/01/01 08:41:45;;;;;;;43.73;24.57;;;;;;;3.53;100.00;99684.00;5103221;55;1138595;-79
2024/01/01 08:46:51;;;;;;;48.60;26.00;;;;;;;3.59;100.00;99690.16;5114208;56;1138656;-80
2024/01/01 08:51:57;;;;;;;37.40;19.23;;;;;;;3.65;100.00;99679.34;5109719;56;1138734;-78
2024/01/01 08:57:03;;;;;;;38.63;20.23;;;;;;;3.73;100.00;99682.30;5119190;55;1138838;-81
2024/01/01 09:02:10;;;;;;;35.13;17.47;;;;;;;3.80;100.00;99678.38;5185807;55;1138839;-78
2024/01/01 09:07:15;;;;;;;40.27;19.53;;;;;;;3.90;100.00;99676.00;5196669;56;1138747;-80
2024/01/01 09:12:21;;;;;;;43.43;24.77;;;;;;;3.99;100.00;99682.41;5109503;56;1138983;-79
2024/01/01 09:17:26;;;;;;;47.17;26.20;;;;;;;4.06;100.00;99687.17;5109627;56;1138865;-79
2024/01/01 09:22:32;;;;;;;35.20;20.63;;;;;;;4.13;100.00;99677.97;5141906;56;1138677;-79
2024/01/01 09:27:37;;;;;;;41.90;19.73;;;;;;;4.18;100.00;99675.06;5166388;55;1139322;-78
2024/01/01 09:32:43;;;;;;;45.57;20.77;;;;;;;4.22;100.00;99677.87;5171998;55;1138547;-82
2024/01/01 09:37:52;;;;;;;41.20;19.03;;;;;;;4.29;100.00;99676.98;4966947;57;1138796;-81
2024/01/01 09:42:56;;;;;;;37.17;19.23;;;;;;;4.34;100.00;99674.91;5075837;56;1138803;-81
2024/01/01 09:48:01;;;;;;;44.08;21.93;;;;;;;4.38;100.00;99672.00;5110671;55;1138842;-80
2024/01/01 09:53:07;;;;;;;116.30;61.10;;;;;;;4.45;100.00;99669.34;5085184;55;1138655;-79
2024/01/01 09:58:12;;;;;;;94.17;42.40;;;;;;;4.52;100.00;99661.92;4993418;57;1140924;-78
2024/01/01 10:03:18;;;;;;;109.47;48.73;;;;;;;4.57;100.00;99667.23;5141176;56;1138683;-78
2024/01/01 10:08:28;;;;;;;67.93;31.03;;;;;;;4.62;100.00;99664.30;5072782;56;1142807;-78
2024/01/01 10:13:34;;;;;;;45.37;20.40;;;;;;;4.68;100.00;99656.04;5067928;56;1140543;-78
2024/01/01 10:18:40;;;;;;;70.00;22.70;;;;;;;4.73;100.00;99656.58;5078141;57;1140599;-78
2024/01/01 10:23:46;;;;;;;79.20;25.27;;;;;;;4.79;100.00;99647.45;5087060;56;1140779;-78
2024/01/01 10:28:52;;;;;;;62.70;22.03;;;;;;;4.84;100.00;99634.89;4945343;58;1141537;-79
2024/01/01 10:33:59;;;;;;;108.00;34.27;;;;;;;4.89;100.00;99632.30;5078667;56;1140876;-78
2024/01/01 10:39:10;;;;;;;86.70;28.50;;;;;;;4.95;100.00;99632.36;5078844;57;1142735;-78
2024/01/01 10:44:15;;;;;;;71.22;25.52;;;;;;;4.99;100.00;99631.22;4943869;58;1140885;-78
2024/01/01 10:49:24;;;;;;;95.13;36.17;;;;;;;5.03;100.00;99630.07;5015323;58;1140999;-78
2024/01/01 10:55:11;;;;;;;46.20;20.67;;;;;;;5.07;100.00;99632.83;4860613;59;1141168;-78
2024/01/01 11:00:41;;;;;;;34.87;16.70;;;;;;;5.13;100.00;99632.41;4996041;56;1140970;-78
2024/01/01 11:05:50;;;;;;;41.92;16.45;;;;;;;5.19;100.00;99628.54;4975481;57;1140909;-78
2024/01/01 11:10:55;;;;;;;43.95;18.85;;;;;;;5.25;100.00;99615.83;5015518;57;1140800;-78
2024/01/01 11:16:06;;;;;;;43.97;18.40;;;;;;;5.33;100.00;99613.98;4995599;57;1140681;-77
2024/01/01 11:21:32;;;;;;;32.90;14.17;;;;;;;5.43;100.00;99611.55;4996980;56;1141081;-77
2024/01/01 11:26:38;;;;;;;37.50;15.83;;;;;;;5.55;100.00;99611.98;4996074;57;1141319;-77
2024/01/01 11:31:44;;;;;;;31.40;16.12;;;;;;;5.66;100.00;99615.50;4962706;58;1140759;-77
2024/01/01 11:36:49;;;;;;;26.43;11.97;;;;;;;5.75;100.00;99614.02;4995294;57;1140667;-78
2024/01/01 11:41:57;;;;;;;29.60;12.33;;;;;;;5.83;100.00;99620.85;5015425;57;1140738;-77
2024/01/01 11:47:03;;;;;;;23.05;11.88;;;;;;;5.90;100.00;99619.98;5015295;57;1141036;-77
2024/01/01 11:52:09;;;;;;;28.67;12.58;;;;;;;5.92;100.00;99621.55;5085534;56;1140847;-78
2024/01/01 11:57:15;;;;;;;34.70;15.50;;;;;;;5.98;100.00;99621.08;5076550;57;1138825;-76
2024/01/01 12:02:22;;;;;;;26.43;12.53;;;;;;;6.03;100.00;99626.00;5069022;57;1141047;-77
2024/01/01 12:07:34;;;;;;;46.27;20.23;;;;;;;6.00;100.00;99624.91;5000753;57;1138644;-77
2024/01/01 12:12:45;;;;;;;25.03;13.50;;;;;;;5.97;100.00;99623.34;4992177;57;1140944;-78
2024/01/01 12:17:54;;;;;;;27.33;12.67;;;;;;;5.96;100.00;99615.10;5011189;57;1141135;-78
2024/01/01 12:23:13;;;;;;;20.12;11.15;;;;;;;5.96;100.00;99611.64;5025869;56;1143519;-77
2024/01/01 12:28:19;;;;;;;25.73;14.77;;;;;;;5.95;100.00;99615.24;5078788;56;1140757;-77
2024/01/01 14:48:09;;;;;;;38.10;14.07;;;;;;;5.60;100.00;99626.45;5151895;55;74250;-76
2024/01/01 14:53:15;;;;;;;41.50;14.70;;;;;;;5.55;100.00;99628.55;4904997;57;1136942;-76
2024/01/01 14:58:21;;;;;;;27.90;11.27;;;;;;;5.56;100.00;99634.17;5015838;55;1141597;-78
2024/01/01 15:03:27;;;;;;;81.13;42.73;;;;;;;5.55;100.00;99636.89;5038642;54;1141020;-78
2024/01/01 15:08:34;;;;;;;65.33;23.00;;;;;;;5.56;100.00;99642.03;5018849;55;1141081;-78
2024/01/01 15:13:39;;;;;;;79.13;36.17;;;;;;;5.58;100.00;99636.21;5038875;53;1140947;-78
2024/01/01 15:18:48;;;;;;;194.40;105.30;;;;;;;5.60;100.00;99646.12;5070649;55;1140949;-78
2024/01/01 15:23:55;;;;;;;174.50;52.10;;;;;;;5.61;100.00;99656.14;5056652;55;1144936;-78
2024/01/01 15:29:00;;;;;;;130.87;45.27;;;;;;;5.58;100.00;99662.44;5052565;55;1143594;-79
2024/01/01 15:34:06;;;;;;;62.65;24.18;;;;;;;5.55;100.00;99664.44;5083172;54;1142945;-78
2024/01/01 15:39:14;;;;;;;100.13;45.70;;;;;;;5.51;100.00;99672.14;5063034;55;1140902;-78
2024/01/01 15:44:19;;;;;;;108.90;44.87;;;;;;;5.47;100.00;99672.86;5050084;55;1142958;-78
2024/01/01 15:49:26;;;;;;;170.70;79.87;;;;;;;5.41;100.00;99679.83;5073269;55;1141200;-79
2024/01/01 15:54:31;;;;;;;118.47;56.23;;;;;;;5.35;100.00;99682.05;5036442;55;1140879;-79
2024/01/01 15:59:37;;;;;;;40.10;18.70;;;;;;;5.32;100.00;99692.75;5013794;56;1140942;-78
2024/01/01 16:04:43;;;;;;;39.43;19.47;;;;;;;5.28;100.00;99685.09;5032195;56;1138680;-79
2024/01/01 16:09:48;;;;;;;66.37;29.53;;;;;;;5.29;100.00;99689.86;5018958;55;1141157;-78
2024/01/01 16:14:54;;;;;;;133.73;54.47;;;;;;;5.30;100.00;99693.69;5003198;55;1140575;-78
2024/01/01 16:20:00;;;;;;;170.33;61.90;;;;;;;5.33;100.00;99690.02;5022634;55;1142839;-77
2024/01/01 16:25:06;;;;;;;105.07;46.37;;;;;;;5.42;100.00;99706.42;4973233;55;1143391;-77
2024/01/01 16:30:13;;;;;;;189.37;84.50;;;;;;;5.41;100.00;99713.08;5005337;55;1140861;-77
2024/01/01 16:35:19;;;;;;;66.30;29.85;;;;;;;5.33;100.00;99727.20;5056202;55;1140943;-78
2024/01/01 16:40:24;;;;;;;64.47;27.93;;;;;;;5.15;100.00;99722.27;5075862;55;1139550;-77
2024/01/01 16:45:30;;;;;;;114.10;50.03;;;;;;;5.10;100.00;99731.38;4919854;56;1138716;-79
2024/01/01 16:50:35;;;;;;;169.90;73.30;;;;;;;5.03;100.00;99723.10;4889793;56;1140697;-77
2024/01/01 16:55:41;;;;;;;53.50;26.27;;;;;;;5.00;100.00;99714.60;4907375;57;1143048;-78
2024/01/01 17:00:47;;;;;;;84.83;37.47;;;;;;;4.98;100.00;99723.88;4904514;57;1141097;-77
2024/01/01 17:05:55;;;;;;;64.27;28.13;;;;;;;4.95;100.00;99722.29;4999295;56;1140879;-77
2024/01/01 17:11:05;;;;;;;45.63;21.60;;;;;;;4.95;100.00;99720.98;5035925;56;1141239;-76
2024/01/01 17:16:09;;;;;;;62.93;26.50;;;;;;;4.92;100.00;99723.80;5057787;55;1141018;-79
2024/01/01 17:21:16;;;;;;;51.88;24.05;;;;;;;4.93;100.00;99725.48;5044824;55;1141167;-77
2024/01/01 17:26:22;;;;;;;45.17;22.07;;;;;;;4.95;100.00;99731.46;5059106;56;1140888;-78
2024/01/01 17:31:28;;;;;;;53.73;24.23;;;;;;;4.94;100.00;99732.41;4995955;57;1141546;-78
2024/01/01 17:36:34;;;;;;;54.07;24.87;;;;;;;4.94;100.00;99735.49;5054107;55;1141144;-77
2024/01/01 17:41:41;;;;;;;70.22;33.20;;;;;;;4.92;100.00;99735.59;5055653;56;1141098;-79
2024/01/01 17:46:46;;;;;;;48.13;22.83;;;;;;;4.89;100.00;99737.09;5077215;55;1141561;-77
2024/01/01 17:51:52;;;;;;;43.23;21.83;;;;;;;4.89;100.00;99735.78;4974839;56;1140624;-77
2024/01/01 17:56:57;;;;;;;52.63;22.07;;;;;;;4.88;100.00;99743.78;4970193;55;1138986;-79
2024/01/01 18:02:03;;;;;;;52.13;22.67;;;;;;;4.81;100.00;99747.27;4942331;56;1138929;-78
2024/01/01 18:07:09;;;;;;;43.68;18.02;;;;;;;4.77;100.00;99746.25;5002234;55;1138638;-81
2024/01/01 18:12:14;;;;;;;35.43;16.07;;;;;;;4.77;100.00;99748.40;4977320;56;1138787;-80
2024/01/01 18:17:20;;;;;;;30.45;16.23;;;;;;;4.80;100.00;99743.43;4967983;57;1141009;-81
2024/01/01 18:22:26;;;;;;;37.13;17.13;;;;;;;4.84;100.00;99755.39;5017087;56;1141252;-79
2024/01/01 18:27:31;;;;;;;29.43;13.57;;;;;;;4.83;100.00;99753.72;5034368;55;1141047;-80
2024/01/01 18:32:37;;;;;;;27.03;11.57;;;;;;;4.82;100.00;99754.19;5048486;55;1140989;-79
2024/01/01 18:37:43;;;;;;;23.73;10.45;;;;;;;4.81;100.00;99754.28;5092663;55;1140831;-82
2024/01/01 18:42:48;;;;;;;32.57;14.13;;;;;;;4.83;100.00;99763.72;5042828;56;1140697;-80
2024/01/01 18:47:54;;;;;;;28.73;12.97;;;;;;;4.87;100.00;99757.34;4937237;56;1140902;-81
2024/01/01 18:53:02;;;;;;;42.50;17.87;;;;;;;4.98;100.00;99761.02;5011891;56;1141104;-80
2024/01/01 18:58:08;;;;;;;52.45;20.23;;;;;;;5.02;100.00;99760.73;5043066;54;1141204;-81
2024/01/01 19:03:14;;;;;;;58.83;27.30;;;;;;;5.02;100.00;99761.20;5060100;55;1140850;-80
2024/01/01 19:08:19;;;;;;;87.67;33.20;;;;;;;5.04;100.00;99759.32;5052561;55;1140886;-80
2024/01/01 19:13:27;;;;;;;79.97;31.80;;;;;;;5.06;100.00;99762.65;5022997;55;1140618;-80
2024/01/01 19:18:34;;;;;;;169.05;65.67;;;;;;;5.05;100.00;99762.28;5042727;55;1141690;-78
2024/01/01 19:23:58;;;;;;;52.83;23.93;;;;;;;5.06;100.00;99755.63;4836389;59;1143233;-78
2024/01/01 19:29:03;;;;;;;36.30;13.67;;;;;;;5.03;100.00;99761.10;4705052;59;1141308;-80
2024/01/01 19:34:09;;;;;;;27.77;11.57;;;;;;;5.01;100.00;99759.05;4615222;61;1141091;-76
2024/01/01 19:39:15;;;;;;;28.40;13.80;;;;;;;4.99;100.00;99758.77;4602111;62;1141126;-78
2024/01/01 19:44:20;;;;;;;30.23;15.68;;;;;;;4.99;100.00;99760.09;4680488;60;1141161;-77
2024/01/01 19:49:26;;;;;;;32.42;17.20;;;;;;;4.98;100.00;99761.87;4677168;60;1141155;-78
2024/01/01 19:54:31;;;;;;;28.90;12.57;;;;;;;5.00;100.00;99765.70;4851766;55;1141385;-78
2024/01/01 19:59:42;;;;;;;31.33;13.27;;;;;;;5.00;100.00;99761.30;4960232;56;1141090;-78
2024/01/01 20:04:48;;;;;;;27.60;11.77;;;;;;;5.00;100.00;99769.16;4961489;56;1141012;-77
2024/01/01 20:09:54;;;;;;;30.20;11.30;;;;;;;4.99;100.00;99763.55;4980426;57;1139326;-80
2024/01/01 20:14:59;;;;;;;40.43;12.07;;;;;;;5.00;100.00;99765.70;4960997;56;1139126;-80
2024/01/01 20:20:07;;;;;;;30.30;10.63;;;;;;;4.99;100.00;99767.48;4960652;56;1138973;-82
2024/01/01 20:25:13;;;;;;;31.06;13.76;;;;;;;4.99;100.00;99766.64;4940109;57;1138862;-80
2024/01/01 20:30:19;;;;;;;21.37;10.23;;;;;;;5.01;100.00;99770.00;4981082;55;1138859;-79
2024/01/01 20:35:24;;;;;;;24.27;9.80;;;;;;;5.01;100.00;99769.53;4954011;57;1138788;-81
2024/01/01 20:40:30;;;;;;;22.23;9.07;;;;;;;5.00;100.00;99768.31;4977220;57;1138779;-81
2024/01/01 20:45:35;;;;;;;23.47;11.73;;;;;;;4.99;100.00;99766.17;4987161;56;1139254;-83
2024/01/01 20:50:44;;;;;;;19.60;10.03;;;;;;;4.97;100.00;99770.67;4943205;57;1141019;-82
2024/01/01 20:55:49;;;;;;;22.00;10.13;;;;;;;4.92;100.00;99772.27;4964743;57;1138809;-83
2024/01/01 21:00:56;;;;;;;36.50;13.13;;;;;;;4.90;100.00;99774.62;4979170;57;1138847;-81
2024/01/01 21:06:04;;;;;;;25.60;10.37;;;;;;;4.88;100.00;99771.29;4955634;57;1138933;-81
2024/01/01 21:11:10;;;;;;;21.77;9.95;;;;;;;4.86;100.00;99772.70;4983298;57;1139195;-78
2024/01/01 21:16:20;;;;;;;23.93;10.43;;;;;;;4.85;100.00;99772.33;4968396;57;1136809;-80
2024/01/01 21:21:30;;;;;;;21.67;9.47;;;;;;;4.83;100.00;99775.52;4977855;57;1138740;-79
2024/01/01 21:26:38;;;;;;;21.40;10.30;;;;;;;4.86;100.00;99773.17;4951035;56;1136867;-81
2024/01/01 21:31:44;;;;;;;23.70;12.40;;;;;;;4.85;100.00;99768.39;4953593;56;1138822;-81
2024/01/01 21:36:49;;;;;;;25.00;9.90;;;;;;;4.84;100.00;99768.02;4964306;57;1138917;-81
2024/01/01 21:41:55;;;;;;;30.77;10.33;;;;;;;4.85;100.00;99774.95;4927627;55;1136745;-81
2024/01/01 21:47:02;;;;;;;23.73;9.47;;;;;;;4.85;100.00;99778.88;4923003;56;1140709;-81
2024/01/01 21:52:08;;;;;;;34.90;16.17;;;;;;;4.85;100.00;99777.56;4900866;57;1137601;-81
2024/01/01 21:57:13;;;;;;;26.60;10.03;;;;;;;4.82;100.00;99779.54;4863692;57;1138561;-80
2024/01/01 22:02:19;;;;;;;19.77;7.97;;;;;;;4.83;100.00;99787.30;4858160;58;1145868;-79
2024/01/01 22:07:27;;;;;;;12.33;6.57;;;;;;;4.82;100.00;99786.93;4893236;58;1136977;-80
2024/01/01 22:12:33;;;;;;;19.07;8.13;;;;;;;4.83;100.00;99790.39;4890861;57;1136737;-80
2024/01/01 22:17:38;;;;;;;16.80;7.00;;;;;;;4.84;100.00;99788.98;4868681;57;1136857;-82
2024/01/01 22:22:44;;;;;;;16.17;6.97;;;;;;;4.85;100.00;99788.52;4909421;57;1136892;-81
2024/01/01 22:27:50;;;;;;;18.47;6.00;;;;;;;4.84;100.00;99784.22;4868603;58;1137177;-79
2024/01/01 22:32:55;;;;;;;13.93;5.83;;;;;;;4.83;100.00;99782.06;4857717;58;1136685;-79
2024/01/01 22:38:01;;;;;;;14.93;6.08;;;;;;;4.84;100.00;99778.97;4877964;57;1136666;-79
2024/01/01 22:43:06;;;;;;;11.97;5.63;;;;;;;4.86;100.00;99785.80;4851451;58;1136907;-79
2024/01/01 22:48:12;;;;;;;15.03;5.20;;;;;;;4.87;100.00;99786.17;4865290;58;1137014;-80
2024/01/01 22:53:18;;;;;;;11.70;4.87;;;;;;;4.89;100.00;99789.97;4854564;58;1136889;-82
2024/01/01 22:58:23;;;;;;;9.98;4.12;;;;;;;4.92;100.00;99788.47;4879550;58;1139344;-81
2024/01/01 23:03:29;;;;;;;14.90;6.03;;;;;;;4.93;100.00;99785.75;4855533;58;1134749;-79
2024/01/01 23:08:34;;;;;;;13.70;5.80;;;;;;;4.93;100.00;99784.44;4865267;58;1139200;-79
2024/01/01 23:13:40;;;;;;;11.77;4.67;;;;;;;4.94;100.00;99781.34;4944350;56;1139218;-82
2024/01/01 23:18:45;;;;;;;11.43;5.83;;;;;;;4.93;100.00;99780.50;4951229;57;1136949;-79
2024/01/01 23:23:51;;;;;;;15.15;5.80;;;;;;;4.92;100.00;99782.75;4940403;56;1137135;-80
2024/01/01 23:28:58;;;;;;;17.63;6.63;;;;;;;4.94;100.00;99777.41;4959978;57;1136592;-79
2024/01/01 23:34:04;;;;;;;16.50;5.47;;;;;;;4.92;100.00;99781.45;4963146;57;1136979;-80
2024/01/01 23:39:09;;;;;;;11.33;5.60;;;;;;;4.91;100.00;99779.77;4949825;55;1136913;-81
2024/01/01 23:44:15;;;;;;;18.90;7.97;;;;;;;4.90;100.00;99771.53;4965214;55;1136746;-81
2024/01/01 23:49:20;;;;;;;9.73;5.03;;;;;;;4.89;100.00;99775.09;4969132;56;1136680;-79
2024/01/01 23:54:26;;;;;;;16.07;6.90;;;;;;;4.89;100.00;99765.92;4956227;56;1134525;-80
2024/01/01 23:59:31;;;;;;;11.33;4.93;;;;;;;4.89;100.00;99774.25;4959230;56;1136535;-79
